Time;durP1;ratioP1;P1;durP2;ratioP2;P2;SDS_P1;SDS_P2;PMS_P1;PMS_P2;Temp;Humidity;BMP_temperature;BMP_pressure;BME280_temperature;BME280_humidity;BME280_pressure;Samples;Min_cycle;Max_cycle;Signal;HPM_P1;HPM_P2
2021/10/17 00:00:16;;;;;;;51.55;32.53;;;11.00;81.60;;;;;;6222536;28;20885;-77
2021/10/17 00:03:18;;;;;;;48.78;32.63;;;11.00;81.90;;;;;;6223132;28;20424;-77
2021/10/17 00:06:20;;;;;;;50.95;34.78;;;11.00;81.80;;;;;;6223027;28;20437;-77
2021/10/17 00:09:21;;;;;;;52.83;34.47;;;11.00;81.90;;;;;;6223123;28;20794;-77
2021/10/17 00:12:25;;;;;;;50.42;33.38;;;11.10;82.10;;;;;;6221683;28;20787;-77
2021/10/17 00:15:28;;;;;;;51.95;33.13;;;11.10;81.90;;;;;;6222158;28;20424;-77
2021/10/17 00:18:30;;;;;;;47.30;32.35;;;11.10;82.20;;;;;;6209311;28;20482;-77
2021/10/17 00:21:31;;;;;;;46.30;32.13;;;11.20;81.90;;;;;;6221979;28;20437;-77
2021/10/17 00:24:33;;;;;;;48.67;33.60;;;11.10;82.00;;;;;;6221593;28;20424;-77
2021/10/17 00:27:37;;;;;;;46.58;32.72;;;11.30;82.00;;;;;;6221827;28;20421;-77
2021/10/17 00:30:39;;;;;;;43.25;32.08;;;11.20;81.70;;;;;;6221338;28;20421;-77
2021/10/17 00:33:40;;;;;;;45.65;32.22;;;11.40;81.90;;;;;;6221587;28;20443;-77
2021/10/17 00:36:42;;;;;;;44.80;31.95;;;11.40;81.80;;;;;;6221414;28;20456;-77
2021/10/17 00:39:44;;;;;;;44.70;30.87;;;11.50;81.50;;;;;;6220786;28;20992;-77
2021/10/17 00:42:49;;;;;;;39.47;28.98;;;11.50;81.30;;;;;;6208710;28;20493;-77
2021/10/17 00:45:51;;;;;;;42.47;30.15;;;11.50;81.60;;;;;;6197012;28;20438;-77
2021/10/17 00:48:53;;;;;;;38.00;27.85;;;11.50;81.60;;;;;;6196144;28;20733;-77
2021/10/17 00:51:55;;;;;;;39.50;27.85;;;11.50;81.50;;;;;;6221615;23;20400;-79
2021/10/17 00:54:57;;;;;;;43.35;31.05;;;11.60;81.30;;;;;;6224568;28;20480;-80
2021/10/17 00:58:01;;;;;;;46.55;32.13;;;11.60;81.30;;;;;;6224329;28;20447;-80
2021/10/17 01:01:03;;;;;;;51.22;33.33;;;11.60;81.40;;;;;;6223128;28;20420;-80
2021/10/17 01:04:05;;;;;;;49.33;32.60;;;11.70;81.60;;;;;;6223871;28;21085;-80
2021/10/17 01:07:08;;;;;;;47.97;31.17;;;11.70;81.70;;;;;;6224140;28;20420;-80
2021/10/17 01:10:11;;;;;;;49.55;32.45;;;11.80;81.70;;;;;;6223685;28;20918;-80
2021/10/17 01:13:19;;;;;;;50.70;33.50;;;11.80;81.60;;;;;;6222922;28;20613;-80
2021/10/17 01:16:20;;;;;;;50.72;31.75;;;11.80;81.90;;;;;;6222289;28;20941;-79
2021/10/17 01:19:23;;;;;;;52.03;35.03;;;11.80;81.90;;;;;;6214572;28;20429;-80
2021/10/17 01:22:26;;;;;;;55.17;34.57;;;11.90;81.90;;;;;;6201406;28;20528;-79
2021/10/17 01:25:28;;;;;;;48.35;31.25;;;11.90;82.10;;;;;;6204447;28;20442;-79
2021/10/17 01:28:30;;;;;;;46.03;31.90;;;11.90;82.00;;;;;;6201068;28;20433;-79
2021/10/17 01:31:35;;;;;;;48.70;30.40;;;12.00;81.80;;;;;;6200479;28;20425;-80
2021/10/17 01:34:37;;;;;;;43.85;30.38;;;12.00;81.90;;;;;;6199790;28;20420;-79
2021/10/17 01:37:41;;;;;;;40.83;29.45;;;12.00;81.60;;;;;;6199972;28;20803;-79
2021/10/17 01:40:42;;;;;;;42.80;28.50;;;12.00;81.50;;;;;;6201804;28;20422;-79
2021/10/17 01:43:44;;;;;;;45.22;32.03;;;12.00;81.60;;;;;;6202475;28;20418;-80
2021/10/17 01:46:46;;;;;;;39.03;28.40;;;12.10;81.60;;;;;;6202220;28;20437;-79
2021/10/17 01:49:48;;;;;;;42.72;29.90;;;12.10;81.70;;;;;;6206061;28;20446;-78
2021/10/17 01:52:51;;;;;;;45.00;30.00;;;12.10;81.50;;;;;;6216869;28;20848;-79
2021/10/17 01:55:52;;;;;;;50.50;30.77;;;12.20;81.60;;;;;;6208506;28;20418;-80
2021/10/17 01:58:54;;;;;;;46.97;32.30;;;12.20;81.30;;;;;;6209707;28;20418;-80
2021/10/17 02:01:56;;;;;;;41.35;30.10;;;12.10;81.20;;;;;;6209240;28;20438;-80
2021/10/17 02:04:58;;;;;;;49.43;29.67;;;12.10;81.30;;;;;;6208367;28;20442;-79
2021/10/17 02:08:01;;;;;;;47.13;32.15;;;12.20;81.20;;;;;;6207822;28;20428;-80
2021/10/17 02:11:03;;;;;;;42.92;30.67;;;12.20;81.10;;;;;;6207288;28;20486;-80
2021/10/17 02:14:05;;;;;;;48.28;30.90;;;12.20;80.90;;;;;;6207854;28;20433;-80
2021/10/17 02:17:07;;;;;;;43.10;30.00;;;12.20;80.90;;;;;;6207855;28;20415;-80
2021/10/17 02:20:10;;;;;;;50.10;31.07;;;12.20;80.70;;;;;;6222168;28;20448;-80
2021/10/17 02:23:13;;;;;;;54.03;32.83;;;12.20;81.00;;;;;;6231082;28;20500;-80
2021/10/17 02:26:15;;;;;;;47.97;30.20;;;12.20;80.80;;;;;;6232119;28;20511;-80
2021/10/17 02:29:17;;;;;;;50.67;32.72;;;12.20;80.90;;;;;;6232471;28;20420;-79
2021/10/17 02:32:18;;;;;;;48.30;31.45;;;12.20;81.10;;;;;;6231527;28;20448;-80
2021/10/17 02:35:20;;;;;;;42.70;29.23;;;12.20;81.00;;;;;;6231393;28;20420;-80
2021/10/17 02:38:23;;;;;;;43.00;29.58;;;12.20;81.00;;;;;;6233264;28;20460;-79
2021/10/17 02:41:25;;;;;;;45.50;30.83;;;12.20;81.00;;;;;;6235687;28;20436;-79
2021/10/17 02:44:27;;;;;;;47.45;31.42;;;12.20;81.00;;;;;;6235246;28;20419;-80
2021/10/17 02:47:29;;;;;;;45.40;31.85;;;12.20;80.90;;;;;;6234968;28;20417;-80
2021/10/17 02:50:30;;;;;;;50.28;31.63;;;12.20;80.90;;;;;;6233695;28;20492;-80
2021/10/17 02:53:34;;;;;;;47.30;30.50;;;12.30;81.20;;;;;;6233924;28;20439;-81
2021/10/17 02:56:36;;;;;;;49.85;32.85;;;12.20;81.30;;;;;;6231623;28;20423;-80
2021/10/17 02:59:37;;;;;;;53.63;33.60;;;12.20;81.00;;;;;;6231588;28;20429;-81
2021/10/17 03:02:39;;;;;;;52.90;32.55;;;12.20;81.00;;;;;;6231923;28;20423;-81
2021/10/17 03:05:41;;;;;;;47.92;31.35;;;12.20;81.20;;;;;;6232284;28;20467;-82
2021/10/17 03:08:44;;;;;;;54.17;34.23;;;12.20;81.20;;;;;;6231873;28;20488;-80
2021/10/17 03:11:46;;;;;;;46.60;32.83;;;12.20;81.00;;;;;;6231790;28;20947;-81
2021/10/17 03:14:47;;;;;;;51.53;32.58;;;12.20;81.00;;;;;;6233249;28;20412;-81
2021/10/17 03:17:50;;;;;;;54.08;34.42;;;12.20;81.20;;;;;;6233690;28;20522;-81
2021/10/17 03:20:52;;;;;;;56.55;33.92;;;12.20;80.80;;;;;;6220305;28;20495;-82
2021/10/17 03:23:55;;;;;;;53.25;34.38;;;12.20;81.10;;;;;;6231816;28;20424;-81
2021/10/17 03:26:57;;;;;;;54.42;34.92;;;12.20;80.90;;;;;;6230837;28;20443;-81
2021/10/17 03:29:58;;;;;;;48.72;32.45;;;12.30;80.90;;;;;;6232682;28;20524;-81
2021/10/17 03:33:00;;;;;;;54.50;34.53;;;12.30;80.90;;;;;;6233384;28;20421;-80
2021/10/17 03:36:02;;;;;;;51.80;33.28;;;12.30;80.80;;;;;;6233383;28;20426;-80
2021/10/17 03:39:05;;;;;;;50.95;33.95;;;12.30;80.60;;;;;;6232058;28;20905;-80
2021/10/17 03:42:07;;;;;;;53.30;35.58;;;12.30;80.80;;;;;;6232193;28;20992;-80
2021/10/17 03:45:10;;;;;;;52.53;34.47;;;12.30;80.90;;;;;;6232182;28;20421;-81
2021/10/17 03:48:11;;;;;;;53.37;35.20;;;12.30;80.80;;;;;;6231711;28;21207;-81
2021/10/17 03:51:13;;;;;;;50.65;34.17;;;12.30;80.70;;;;;;6231558;28;20416;-81
2021/10/17 03:54:16;;;;;;;53.90;35.28;;;12.30;80.70;;;;;;6231319;28;20446;-81
2021/10/17 03:57:18;;;;;;;51.15;32.60;;;12.30;80.80;;;;;;6227699;28;20426;-80
2021/10/17 04:00:21;;;;;;;54.60;33.95;;;12.30;81.00;;;;;;6225854;28;20428;-80
2021/10/17 04:03:23;;;;;;;56.95;35.25;;;12.30;80.70;;;;;;6225706;28;20417;-81
2021/10/17 04:06:25;;;;;;;61.22;36.65;;;12.30;81.10;;;;;;6223861;28;20436;-81
2021/10/17 04:09:28;;;;;;;53.15;35.55;;;12.40;81.00;;;;;;6224001;28;20803;-80
2021/10/17 04:12:30;;;;;;;51.50;34.25;;;12.40;80.80;;;;;;6223377;28;20896;-81
2021/10/17 04:15:35;;;;;;;57.10;36.25;;;12.40;80.50;;;;;;6223229;28;20503;-81
2021/10/17 04:18:37;;;;;;;56.42;35.08;;;12.40;80.50;;;;;;6222460;28;20413;-80
2021/10/17 04:21:39;;;;;;;54.75;34.13;;;12.40;80.50;;;;;;6216238;28;20441;-79
2021/10/17 04:24:43;;;;;;;47.92;34.05;;;12.40;80.60;;;;;;6199745;28;20430;-81
2021/10/17 04:27:44;;;;;;;66.32;52.60;;;12.40;80.80;;;;;;6200063;28;20499;-80
2021/10/17 04:30:46;;;;;;;55.38;40.20;;;12.40;80.50;;;;;;6199479;28;20410;-80
2021/10/17 04:33:48;;;;;;;52.58;39.08;;;12.40;80.50;;;;;;6199151;28;20434;-80
2021/10/17 04:36:49;;;;;;;52.80;36.10;;;12.50;80.30;;;;;;6198412;28;20421;-81
2021/10/17 04:39:53;;;;;;;51.15;35.83;;;12.40;80.50;;;;;;6198216;28;20505;-81
2021/10/17 04:42:56;;;;;;;50.58;34.38;;;12.50;80.20;;;;;;6199115;28;20423;-81
2021/10/17 04:46:00;;;;;;;49.30;34.42;;;12.50;80.00;;;;;;6198556;28;20939;-80
2021/10/17 04:49:01;;;;;;;48.53;33.90;;;12.50;80.40;;;;;;6198330;28;20781;-80
2021/10/17 04:52:03;;;;;;;49.65;36.28;;;12.50;80.70;;;;;;6197957;28;20505;-80
2021/10/17 04:55:08;;;;;;;49.67;34.58;;;12.50;80.50;;;;;;6198129;28;20414;-80
2021/10/17 04:58:10;;;;;;;51.33;34.78;;;12.50;81.20;;;;;;6198398;28;20524;-80
2021/10/17 05:01:12;;;;;;;52.83;33.95;;;12.50;80.60;;;;;;6197437;28;20807;-80
2021/10/17 05:04:14;;;;;;;56.38;35.65;;;12.50;80.40;;;;;;6197346;28;20429;-80
2021/10/17 05:07:15;;;;;;;57.33;37.72;;;12.50;80.60;;;;;;6198352;28;20425;-80
2021/10/17 05:10:19;;;;;;;54.45;34.72;;;12.50;80.50;;;;;;6197551;28;20445;-81
2021/10/17 05:13:20;;;;;;;55.83;35.13;;;12.50;80.30;;;;;;6197547;28;20465;-81
2021/10/17 05:16:22;;;;;;;54.92;34.17;;;12.50;80.30;;;;;;6219774;28;20525;-81
2021/10/17 05:19:24;;;;;;;53.15;33.88;;;12.40;80.00;;;;;;6202731;28;20565;-79
2021/10/17 05:22:26;;;;;;;55.60;34.40;;;12.50;80.00;;;;;;6214313;28;20434;-78
2021/10/17 05:25:29;;;;;;;48.17;31.85;;;12.40;79.80;;;;;;6201952;28;20541;-78
2021/10/17 05:28:31;;;;;;;56.47;34.00;;;12.40;80.00;;;;;;6203686;28;20433;-78
2021/10/17 05:31:34;;;;;;;51.63;34.45;;;12.40;80.20;;;;;;6207840;28;20481;-79
2021/10/17 05:34:35;;;;;;;52.70;33.05;;;12.40;80.20;;;;;;6209684;28;20509;-79
2021/10/17 05:37:37;;;;;;;55.50;34.58;;;12.40;80.20;;;;;;6210988;28;20462;-79
2021/10/17 05:40:40;;;;;;;59.53;33.73;;;12.40;80.20;;;;;;6210014;28;20424;-79
2021/10/17 05:43:42;;;;;;;50.35;32.05;;;12.40;79.90;;;;;;6210788;28;20577;-79
2021/10/17 05:46:44;;;;;;;51.03;31.88;;;12.40;80.00;;;;;;6210902;28;20420;-79
2021/10/17 05:49:46;;;;;;;50.80;33.35;;;12.40;79.80;;;;;;6209275;28;20437;-79
2021/10/17 05:52:47;;;;;;;53.08;33.10;;;12.40;80.00;;;;;;6209081;28;20422;-79
2021/10/17 05:55:51;;;;;;;52.77;34.87;;;12.30;79.90;;;;;;6209643;28;20435;-79
2021/10/17 05:58:53;;;;;;;50.10;33.58;;;12.30;80.00;;;;;;6209739;28;21040;-79
2021/10/17 06:01:54;;;;;;;51.13;33.33;;;12.30;80.10;;;;;;6210439;28;20434;-79
2021/10/17 06:04:56;;;;;;;53.05;32.25;;;12.40;80.10;;;;;;6208313;28;20461;-79
2021/10/17 06:07:59;;;;;;;56.78;34.47;;;12.30;79.80;;;;;;6207688;28;20438;-79
2021/10/17 06:11:02;;;;;;;53.15;34.13;;;12.30;79.90;;;;;;6206124;28;20421;-79
2021/10/17 06:14:04;;;;;;;86.32;63.10;;;12.30;79.90;;;;;;6208340;28;20438;-79
2021/10/17 06:17:06;;;;;;;53.35;36.30;;;12.30;80.10;;;;;;6211177;28;20442;-79
2021/10/17 06:20:08;;;;;;;59.83;36.00;;;12.20;80.30;;;;;;6209644;28;20505;-79
2021/10/17 06:23:10;;;;;;;54.33;33.77;;;12.20;80.80;;;;;;6216432;28;20420;-79
2021/10/17 06:26:13;;;;;;;53.97;32.95;;;12.20;80.70;;;;;;6228211;28;20507;-79
2021/10/17 06:29:15;;;;;;;48.58;31.80;;;12.30;80.50;;;;;;6227337;28;20500;-79
2021/10/17 06:32:17;;;;;;;52.37;33.50;;;12.30;80.60;;;;;;6227633;28;20420;-79
2021/10/17 06:35:18;;;;;;;52.50;34.00;;;12.30;80.30;;;;;;6227499;28;20438;-79
2021/10/17 06:38:20;;;;;;;68.18;35.58;;;12.30;80.50;;;;;;6227523;28;20996;-79
2021/10/17 06:41:24;;;;;;;54.88;33.30;;;12.20;80.50;;;;;;6226995;28;20539;-79
2021/10/17 06:44:25;;;;;;;52.67;33.33;;;12.20;80.60;;;;;;6227556;28;20420;-79
2021/10/17 06:47:27;;;;;;;61.15;36.00;;;12.20;80.80;;;;;;6227249;28;20583;-79
2021/10/17 06:50:29;;;;;;;60.60;36.05;;;12.30;80.70;;;;;;6227213;28;20443;-79
2021/10/17 06:53:31;;;;;;;58.58;34.50;;;12.30;80.60;;;;;;6228477;28;20438;-80
2021/10/17 06:56:34;;;;;;;62.03;35.20;;;12.20;81.20;;;;;;6224965;28;20413;-80
2021/10/17 06:59:36;;;;;;;59.35;35.58;;;12.10;81.10;;;;;;6224720;28;20447;-80
2021/10/17 07:08:52;;;;;;;57.43;35.90;;;12.30;81.90;;;;;;6176347;28;20436;-79
2021/10/17 07:12:00;;;;;;;55.22;36.58;;;12.30;81.40;;;;;;6178738;28;20467;-79
2021/10/17 07:15:02;;;;;;;56.90;34.97;;;12.30;81.30;;;;;;6178431;28;20428;-79
2021/10/17 07:18:07;;;;;;;55.53;34.53;;;12.40;81.30;;;;;;6179053;28;20463;-80
2021/10/17 07:45:16;;;;;;;55.47;38.78;;;12.80;79.40;;;;;;6217106;23;20846;-82
2021/10/17 07:56:29;;;;;;;57.72;36.05;;;12.90;79.80;;;;;;6136149;28;20424;-82
2021/10/17 07:59:46;;;;;;;58.17;39.88;;;12.90;80.00;;;;;;6189566;28;20418;-78
2021/10/17 08:03:22;;;;;;;79.90;56.78;;;13.00;80.00;;;;;;6201333;28;20421;-78
2021/10/17 08:06:23;;;;;;;75.05;50.45;;;13.00;79.80;;;;;;6193348;28;20442;-80
2021/10/17 08:09:25;;;;;;;86.65;60.88;;;13.00;79.50;;;;;;6216058;28;20448;-78
2021/10/17 08:12:28;;;;;;;101.28;72.90;;;13.00;79.40;;;;;;6201765;28;20489;-79
2021/10/17 08:15:30;;;;;;;77.88;50.10;;;13.00;79.00;;;;;;6199889;28;20433;-80
2021/10/17 08:18:32;;;;;;;67.93;47.83;;;13.00;79.50;;;;;;6201253;28;20449;-79
2021/10/17 08:21:35;;;;;;;76.47;52.77;;;13.00;79.30;;;;;;6202643;28;20434;-78
2021/10/17 08:24:36;;;;;;;73.35;51.75;;;13.00;79.40;;;;;;6202037;28;20425;-79
2021/10/17 08:27:45;;;;;;;85.38;60.83;;;13.10;79.60;;;;;;6200280;28;20842;-81
2021/10/17 08:30:50;;;;;;;63.53;44.88;;;13.10;79.60;;;;;;6207461;28;20421;-81
2021/10/17 08:33:52;;;;;;;51.70;36.78;;;13.10;79.00;;;;;;6209463;28;20466;-81
2021/10/17 08:36:54;;;;;;;48.85;32.15;;;13.20;78.90;;;;;;6209640;28;20502;-81
2021/10/17 08:39:56;;;;;;;47.90;31.23;;;13.20;78.60;;;;;;6219156;28;20599;-80
2021/10/17 08:42:59;;;;;;;44.88;31.70;;;13.30;79.10;;;;;;6201767;28;20429;-79
2021/10/17 08:46:01;;;;;;;51.83;36.30;;;13.30;78.70;;;;;;6200843;28;20438;-79
2021/10/17 08:49:04;;;;;;;38.60;28.52;;;13.30;77.90;;;;;;6198600;28;20423;-79
2021/10/17 08:52:10;;;;;;;41.97;28.23;;;13.40;78.00;;;;;;6201161;28;20421;-79
2021/10/17 08:55:12;;;;;;;39.75;25.10;;;13.40;78.20;;;;;;6199705;28;20958;-81
2021/10/17 08:58:15;;;;;;;37.25;26.15;;;13.40;78.00;;;;;;6200028;28;20474;-79
2021/10/17 09:01:17;;;;;;;35.40;25.42;;;13.40;77.60;;;;;;6200015;28;20420;-80
2021/10/17 09:04:27;;;;;;;33.92;25.50;;;13.40;77.90;;;;;;6200562;28;20423;-80
2021/10/17 09:07:29;;;;;;;38.03;26.92;;;13.50;78.00;;;;;;6201707;28;20954;-81
2021/10/17 09:10:31;;;;;;;35.90;24.23;;;13.50;77.40;;;;;;6200570;28;20498;-80
2021/10/17 09:13:43;;;;;;;40.42;26.30;;;13.40;76.90;;;;;;6203377;28;20536;-81
2021/10/17 09:16:47;;;;;;;37.35;25.08;;;13.40;76.60;;;;;;6220542;28;20421;-81
2021/10/17 09:19:49;;;;;;;39.33;25.80;;;13.50;76.80;;;;;;6201236;28;20419;-81
2021/10/17 09:22:54;;;;;;;35.53;25.83;;;13.50;77.60;;;;;;6199559;28;20422;-82
2021/10/17 09:25:59;;;;;;;103.70;90.95;;;13.50;77.40;;;;;;6159531;28;20479;-81
2021/10/17 09:29:02;;;;;;;48.93;38.27;;;13.60;77.40;;;;;;6193014;28;21018;-81
2021/10/17 09:32:11;;;;;;;42.45;33.00;;;13.60;77.40;;;;;;6185663;28;20416;-82
2021/10/17 09:35:13;;;;;;;53.20;43.63;;;13.60;77.40;;;;;;6174921;28;20416;-80
2021/10/17 09:38:18;;;;;;;33.30;24.27;;;13.70;77.00;;;;;;6175216;28;20446;-80
2021/10/17 09:41:22;;;;;;;42.17;37.35;;;13.70;77.00;;;;;;6174345;28;20478;-80
2021/10/17 09:44:37;;;;;;;27.85;21.02;;;13.70;77.50;;;;;;6194109;28;20560;-81
2021/10/17 09:47:39;;;;;;;27.55;21.27;;;13.70;77.20;;;;;;6217764;28;20422;-80
2021/10/17 09:50:41;;;;;;;25.42;19.20;;;13.70;77.10;;;;;;6201421;28;20409;-79
2021/10/17 09:53:46;;;;;;;23.67;18.92;;;13.80;76.90;;;;;;6215593;28;20443;-81
2021/10/17 09:56:47;;;;;;;27.08;19.30;;;13.80;76.60;;;;;;6207495;28;20453;-80
2021/10/17 09:59:50;;;;;;;25.10;18.92;;;13.80;76.50;;;;;;6202133;28;20422;-80
2021/10/17 10:02:53;;;;;;;25.57;18.27;;;13.70;76.70;;;;;;6207056;28;20497;-79
2021/10/17 10:05:57;;;;;;;23.88;18.55;;;13.80;76.80;;;;;;6203067;28;20431;-80
2021/10/17 10:09:01;;;;;;;22.73;17.63;;;14.00;76.10;;;;;;6200595;28;20425;-81
2021/10/17 10:12:04;;;;;;;27.40;22.95;;;14.00;76.40;;;;;;6210848;28;20422;-80
2021/10/17 10:15:08;;;;;;;19.63;16.05;;;14.10;75.60;;;;;;6211563;28;20469;-81
2021/10/17 10:18:16;;;;;;;29.17;26.00;;;14.20;74.80;;;;;;6213801;28;20432;-80
2021/10/17 10:21:18;;;;;;;22.63;18.55;;;14.20;74.80;;;;;;6231733;28;20894;-80
2021/10/17 10:24:21;;;;;;;21.58;18.38;;;14.20;74.80;;;;;;6229442;28;20416;-81
2021/10/17 10:27:24;;;;;;;23.40;17.92;;;14.30;75.20;;;;;;6218058;28;20929;-81
2021/10/17 10:30:31;;;;;;;26.13;19.07;;;14.20;74.90;;;;;;6202119;28;20438;-82
2021/10/17 10:33:42;;;;;;;23.67;17.58;;;14.20;74.50;;;;;;6223734;28;20474;-80
2021/10/17 10:36:46;;;;;;;22.67;17.08;;;14.10;74.50;;;;;;6220836;28;20426;-79
2021/10/17 10:40:12;;;;;;;20.00;16.40;;;14.20;74.50;;;;;;6209347;28;20442;-81
2021/10/17 10:43:17;;;;;;;25.95;19.50;;;14.10;74.70;;;;;;6212742;28;20421;-81
2021/10/17 10:46:29;;;;;;;32.10;21.60;;;14.10;74.70;;;;;;6209312;28;20449;-81
2021/10/17 10:49:46;;;;;;;21.08;16.10;;;14.10;74.30;;;;;;6206600;28;20442;-82
2021/10/17 10:52:48;;;;;;;21.63;15.65;;;14.20;74.10;;;;;;6205293;28;20419;-81
2021/10/17 10:55:51;;;;;;;20.58;16.10;;;14.30;78.40;;;;;;6205671;28;20423;-81
2021/10/17 10:58:55;;;;;;;25.08;16.92;;;14.30;73.20;;;;;;6200427;28;20420;-81
2021/10/17 11:02:02;;;;;;;24.40;17.67;;;14.40;73.40;;;;;;6180215;28;20929;-83
2021/10/17 11:05:15;;;;;;;21.67;16.60;;;14.40;73.20;;;;;;6182302;28;20439;-82
2021/10/17 11:08:17;;;;;;;21.15;15.75;;;14.30;73.50;;;;;;6181694;28;20431;-81
2021/10/17 11:11:37;;;;;;;24.08;15.63;;;14.30;73.10;;;;;;6180612;28;20422;-83
2021/10/17 11:14:39;;;;;;;21.70;15.82;;;14.20;72.80;;;;;;6180478;28;20910;-82
2021/10/17 11:17:50;;;;;;;23.87;16.87;;;14.10;73.60;;;;;;6182065;28;20444;-80
2021/10/17 11:20:51;;;;;;;23.83;17.50;;;14.10;74.00;;;;;;6182117;28;20498;-80
2021/10/17 11:23:53;;;;;;;22.23;17.50;;;14.00;73.70;;;;;;6181649;28;20424;-80
2021/10/17 11:27:11;;;;;;;24.75;17.67;;;13.90;74.80;;;;;;6180816;28;20443;-82
2021/10/17 11:30:21;;;;;;;29.02;21.42;;;13.90;74.40;;;;;;6179387;28;20504;-84
2021/10/17 11:33:24;;;;;;;33.03;22.45;;;13.70;75.40;;;;;;6180663;28;20420;-80
2021/10/17 11:36:26;;;;;;;35.13;23.63;;;13.70;75.80;;;;;;6176478;28;20431;-81
2021/10/17 11:39:53;;;;;;;28.90;23.00;;;13.60;76.20;;;;;;6188721;28;20470;-80
2021/10/17 11:42:57;;;;;;;34.50;25.15;;;13.70;75.50;;;;;;6204777;28;20418;-83
2021/10/17 11:46:03;;;;;;;34.85;22.77;;;13.70;75.80;;;;;;6204206;28;20442;-81
2021/10/17 11:49:12;;;;;;;36.42;24.95;;;13.80;75.80;;;;;;6203462;28;20439;-81
2021/10/17 11:52:13;;;;;;;39.85;25.38;;;13.80;76.10;;;;;;6202066;28;20940;-83
2021/10/17 11:55:26;;;;;;;37.73;24.83;;;13.80;75.90;;;;;;6201518;28;20477;-83
2021/10/17 11:58:30;;;;;;;39.15;25.90;;;13.70;75.60;;;;;;6201263;28;20958;-83
2021/10/17 12:01:32;;;;;;;35.97;24.23;;;13.70;75.70;;;;;;6201378;28;20473;-84
2021/10/17 12:04:45;;;;;;;43.53;26.37;;;13.70;76.00;;;;;;6216799;28;20446;-84
2021/10/17 12:07:46;;;;;;;35.22;22.60;;;13.60;75.90;;;;;;6205529;28;20503;-81
2021/10/17 12:10:58;;;;;;;36.42;23.10;;;13.70;75.80;;;;;;6200839;28;20407;-83
2021/10/17 12:14:01;;;;;;;35.20;22.33;;;13.60;75.80;;;;;;6201531;28;20434;-81
2021/10/17 12:17:03;;;;;;;35.17;21.90;;;13.60;76.10;;;;;;6201609;28;20414;-79
2021/10/17 12:20:11;;;;;;;38.33;23.88;;;13.60;75.70;;;;;;6200359;28;20788;-80
2021/10/17 12:23:12;;;;;;;38.95;26.60;;;13.70;76.00;;;;;;6200297;28;20808;-80
2021/10/17 12:26:15;;;;;;;38.38;22.15;;;13.70;75.40;;;;;;6202206;28;20438;-80
2021/10/17 12:29:19;;;;;;;35.40;23.05;;;13.70;75.40;;;;;;6200005;28;20946;-80
2021/10/17 12:32:21;;;;;;;30.92;20.50;;;13.70;75.90;;;;;;6205150;28;20438;-81
2021/10/17 12:35:33;;;;;;;48.63;32.17;;;13.70;75.50;;;;;;6206764;28;20476;-81
2021/10/17 12:38:37;;;;;;;36.60;24.53;;;13.70;75.80;;;;;;6204601;28;20435;-82
2021/10/17 12:41:39;;;;;;;190.17;115.27;;;13.80;75.40;;;;;;6201628;28;20449;-81
2021/10/17 12:44:45;;;;;;;57.92;41.28;;;13.80;75.30;;;;;;6201899;28;20414;-82
2021/10/17 12:47:54;;;;;;;33.08;23.92;;;13.90;75.20;;;;;;6201033;28;20448;-82
2021/10/17 12:50:57;;;;;;;33.58;22.35;;;14.00;74.10;;;;;;6203568;28;20411;-86
2021/10/17 12:54:10;;;;;;;33.50;21.92;;;14.00;73.80;;;;;;6190233;28;20558;-82
2021/10/17 12:57:12;;;;;;;27.83;19.63;;;14.10;73.30;;;;;;6181375;28;21143;-81
2021/10/17 13:00:15;;;;;;;28.13;19.98;;;14.10;73.20;;;;;;6178478;28;20416;-83
2021/10/17 13:03:19;;;;;;;29.38;22.08;;;14.10;73.10;;;;;;6179779;28;20420;-82
2021/10/17 13:06:22;;;;;;;27.60;21.63;;;14.10;73.40;;;;;;6180142;28;20446;-82
2021/10/17 13:09:24;;;;;;;33.00;21.67;;;14.10;72.90;;;;;;6179018;28;20951;-82
2021/10/17 13:12:27;;;;;;;33.20;21.95;;;14.10;73.70;;;;;;6176414;28;20789;-81
2021/10/17 13:15:31;;;;;;;33.63;21.95;;;14.10;74.50;;;;;;6178969;28;20923;-82
2021/10/17 13:18:33;;;;;;;30.87;20.47;;;14.00;74.70;;;;;;6178829;28;20440;-82
2021/10/17 13:21:38;;;;;;;28.08;19.73;;;14.00;74.30;;;;;;6178356;28;20450;-82
2021/10/17 13:24:39;;;;;;;26.92;18.70;;;14.10;72.90;;;;;;6177208;28;20514;-81
2021/10/17 13:27:41;;;;;;;27.55;17.98;;;14.10;73.20;;;;;;6190193;28;20422;-83
2021/10/17 13:30:43;;;;;;;28.45;19.45;;;14.10;73.70;;;;;;6202498;28;20489;-81
2021/10/17 13:54:50;;;;;;;28.80;19.58;;;14.40;72.40;;;;;;6187523;28;20924;-82
2021/10/17 14:29:16;;;;;;;20.08;15.75;;;15.70;65.60;;;;;;6085870;29;20529;-83
2021/10/17 14:32:18;;;;;;;20.92;15.20;;;15.80;66.00;;;;;;6164788;28;20428;-82
2021/10/17 14:35:23;;;;;;;23.27;17.70;;;15.80;65.30;;;;;;6191505;28;20459;-82
2021/10/17 14:38:29;;;;;;;19.50;15.47;;;16.00;64.20;;;;;;6187431;28;20435;-82
2021/10/17 14:41:31;;;;;;;23.13;15.38;;;15.60;64.90;;;;;;6189648;28;20898;-81
2021/10/17 14:44:52;;;;;;;19.55;15.43;;;15.60;65.00;;;;;;6187708;28;20420;-82
2021/10/17 14:47:54;;;;;;;18.92;15.32;;;15.60;65.80;;;;;;6189359;28;20471;-81
2021/10/17 14:50:56;;;;;;;21.98;15.75;;;15.60;65.10;;;;;;6190096;28;20416;-81
2021/10/17 14:53:59;;;;;;;22.77;16.02;;;15.40;65.40;;;;;;6188167;28;20439;-82
2021/10/17 14:57:01;;;;;;;22.48;14.85;;;15.20;66.40;;;;;;6187343;28;20420;-81
2021/10/17 15:00:05;;;;;;;18.40;14.68;;;15.10;67.30;;;;;;6184604;28;20416;-82
2021/10/17 15:03:07;;;;;;;18.00;14.50;;;15.00;68.40;;;;;;6186158;28;20495;-82
2021/10/17 15:06:09;;;;;;;19.40;15.55;;;15.00;68.20;;;;;;6190579;28;20841;-82
2021/10/17 15:09:10;;;;;;;21.67;13.85;;;14.90;68.90;;;;;;6187636;28;20523;-82
2021/10/17 15:12:12;;;;;;;21.15;15.23;;;14.80;69.30;;;;;;6187419;28;20602;-80
2021/10/17 15:15:15;;;;;;;19.15;13.75;;;14.80;69.30;;;;;;6187017;28;20420;-82
2021/10/17 15:18:17;;;;;;;19.83;14.57;;;14.70;69.50;;;;;;6188026;28;20454;-81
2021/10/17 15:21:19;;;;;;;17.30;13.38;;;14.70;69.00;;;;;;6187817;28;20531;-83
2021/10/17 15:24:21;;;;;;;23.23;14.88;;;14.60;69.80;;;;;;6183316;28;20491;-81
2021/10/17 15:27:23;;;;;;;18.08;14.38;;;14.60;70.40;;;;;;6189579;28;20484;-82
2021/10/17 15:30:27;;;;;;;18.23;13.63;;;14.60;70.10;;;;;;6210978;28;20845;-82
2021/10/17 15:33:29;;;;;;;19.08;15.18;;;14.60;69.10;;;;;;6272860;22;20433;-82
2021/10/17 15:36:32;;;;;;;18.13;14.10;;;14.40;70.10;;;;;;6236448;28;20957;-83
2021/10/17 15:39:34;;;;;;;18.63;14.35;;;14.40;70.80;;;;;;6231530;28;20447;-81
2021/10/17 15:42:37;;;;;;;24.05;17.58;;;14.40;70.90;;;;;;6259106;22;20405;-83
2021/10/17 15:45:42;;;;;;;23.13;16.67;;;14.20;71.40;;;;;;6234256;28;20429;-83
2021/10/17 15:48:44;;;;;;;23.52;15.18;;;14.20;72.30;;;;;;6228561;28;20420;-83
2021/10/17 15:51:46;;;;;;;21.40;15.35;;;14.20;72.60;;;;;;6225973;28;20424;-83
2021/10/17 15:54:48;;;;;;;17.35;13.82;;;14.10;73.00;;;;;;6236230;28;20419;-82
2021/10/17 15:57:56;;;;;;;26.05;16.58;;;14.00;74.10;;;;;;6237416;28;20459;-83
2021/10/17 16:01:03;;;;;;;24.37;14.90;;;13.90;73.70;;;;;;6234248;28;20417;-81
2021/10/17 16:04:26;;;;;;;21.02;15.93;;;13.80;74.50;;;;;;6238679;28;20473;-84
2021/10/17 16:15:23;;;;;;;21.42;15.30;;;13.40;75.50;;;;;;6169234;28;20440;-83
2021/10/17 16:18:26;;;;;;;67.47;33.73;;;13.30;76.30;;;;;;6200061;28;20486;-81
2021/10/17 16:21:28;;;;;;;64.70;39.45;;;13.20;80.20;;;;;;6247370;28;20936;-81
2021/10/17 16:24:37;;;;;;;23.15;16.08;;;13.30;87.10;;;;;;6234586;28;20603;-81
2021/10/17 16:27:41;;;;;;;15.88;12.10;;;13.30;81.10;;;;;;6230807;28;20823;-80
2021/10/17 16:30:52;;;;;;;20.00;12.98;;;13.40;78.80;;;;;;6228402;28;20416;-81
2021/10/17 16:33:55;;;;;;;19.33;13.63;;;13.30;75.50;;;;;;6221943;28;20515;-82
2021/10/17 16:36:57;;;;;;;19.20;15.05;;;13.10;75.90;;;;;;6228532;28;20914;-83
2021/10/17 16:39:59;;;;;;;20.07;14.43;;;12.80;76.70;;;;;;6230237;28;20419;-84
2021/10/17 16:43:01;;;;;;;23.50;15.25;;;12.60;77.30;;;;;;6229923;28;20408;-83
2021/10/17 16:46:05;;;;;;;21.77;16.05;;;12.40;77.60;;;;;;6231401;28;20433;-83
2021/10/17 16:49:08;;;;;;;24.35;16.25;;;12.20;77.90;;;;;;6229066;28;20420;-84
2021/10/17 16:52:10;;;;;;;22.48;15.77;;;12.10;78.30;;;;;;6228090;28;20515;-83
2021/10/17 16:55:12;;;;;;;24.73;16.23;;;11.90;78.70;;;;;;6227259;28;20841;-83
2021/10/17 16:58:14;;;;;;;21.75;16.48;;;11.70;78.80;;;;;;6224501;28;20448;-82
2021/10/17 17:01:16;;;;;;;23.05;17.65;;;11.60;79.20;;;;;;6230331;28;20519;-84
2021/10/17 17:04:19;;;;;;;22.98;16.25;;;11.50;79.50;;;;;;6229730;28;20448;-82
2021/10/17 17:07:21;;;;;;;23.00;16.87;;;11.30;79.80;;;;;;6232161;28;20448;-83